Time;durP1;ratioP1;P1;durP2;ratioP2;P2;SDS_P1;SDS_P2;PMS_P1;PMS_P2;Temp;Humidity;BMP_temperature;BMP_pressure;BME280_temperature;BME280_humidity;BME280_pressure;Samples;Min_cycle;Max_cycle;Signal;HPM_P1;HPM_P2
2023/01/30 00:01:44;;;;;;;17.83;11.65;;;1.50;99.90;;;;;;4957258;28;20030;-61
2023/01/30 00:04:11;;;;;;;18.63;11.70;;;1.40;99.90;;;;;;4623755;28;9999868;-60
2023/01/30 00:06:38;;;;;;;18.85;11.75;;;1.50;99.90;;;;;;4969814;28;20454;-61
2023/01/30 00:09:04;;;;;;;15.07;10.75;;;1.50;99.90;;;;;;4962279;28;20039;-60
2023/01/30 00:11:32;;;;;;;18.70;11.73;;;1.50;99.90;;;;;;4952286;28;20023;-59
2023/01/30 00:13:58;;;;;;;15.60;10.68;;;1.60;99.90;;;;;;4959397;28;20027;-60
2023/01/30 00:16:24;;;;;;;17.55;11.23;;;1.60;99.90;;;;;;4944684;28;20034;-61
2023/01/30 00:18:49;;;;;;;17.70;12.05;;;1.50;99.90;;;;;;4941105;29;20036;-59
2023/01/30 00:21:15;;;;;;;13.23;10.68;;;1.50;99.90;;;;;;4954002;28;20517;-61
2023/01/30 00:23:41;;;;;;;20.95;12.45;;;1.60;99.90;;;;;;4973162;28;20027;-60
2023/01/30 00:26:08;;;;;;;23.40;11.85;;;1.60;99.90;;;;;;4970870;28;20027;-61
2023/01/30 00:28:35;;;;;;;20.92;12.43;;;1.60;99.90;;;;;;4952972;28;20035;-61
2023/01/30 00:31:01;;;;;;;19.15;11.80;;;1.60;99.90;;;;;;4952078;28;20077;-61
2023/01/30 00:33:28;;;;;;;23.55;12.70;;;1.60;99.90;;;;;;4953637;28;20430;-60
2023/01/30 00:35:55;;;;;;;15.73;12.30;;;1.50;99.90;;;;;;4968499;28;20034;-59
2023/01/30 00:38:22;;;;;;;22.15;13.05;;;1.50;99.90;;;;;;4959121;28;20041;-62
2023/01/30 00:40:48;;;;;;;25.25;13.55;;;1.50;99.90;;;;;;4953476;29;20563;-61
2023/01/30 00:48:48;;;;;;;16.85;12.73;;;1.50;99.90;;;;;;4933504;29;20090;-60
2023/01/30 00:51:13;;;;;;;22.55;13.40;;;1.50;99.90;;;;;;4934122;29;20023;-60
2023/01/30 00:53:39;;;;;;;19.85;13.98;;;1.50;99.90;;;;;;4934297;29;20505;-59
2023/01/30 00:56:05;;;;;;;23.00;14.23;;;1.50;99.90;;;;;;4934839;29;20488;-60
2023/01/30 00:58:32;;;;;;;24.50;14.48;;;1.50;99.90;;;;;;4934145;29;20684;-59
2023/01/30 01:00:58;;;;;;;23.25;14.73;;;1.50;99.90;;;;;;4933960;29;20423;-60
2023/01/30 01:03:24;;;;;;;24.27;14.18;;;1.50;99.90;;;;;;4934146;29;20107;-60
2023/01/30 01:05:49;;;;;;;27.85;14.52;;;1.50;99.90;;;;;;4935344;29;20525;-61
2023/01/30 01:08:15;;;;;;;25.00;14.32;;;1.60;99.90;;;;;;4953151;29;20510;-61
2023/01/30 01:10:41;;;;;;;26.23;15.30;;;1.40;99.90;;;;;;4954402;28;20038;-61
2023/01/30 01:13:06;;;;;;;20.92;14.00;;;1.40;99.90;;;;;;4972994;28;20023;-61
2023/01/30 01:15:33;;;;;;;30.40;15.50;;;1.40;99.90;;;;;;4972078;28;20402;-61
2023/01/30 01:17:58;;;;;;;31.67;16.65;;;1.40;99.90;;;;;;4952699;28;20446;-61
2023/01/30 01:20:24;;;;;;;20.88;13.48;;;1.40;99.90;;;;;;4953082;29;20031;-61
2023/01/30 01:22:54;;;;;;;27.60;16.50;;;1.40;99.90;;;;;;4953474;28;20505;-61
2023/01/30 01:25:21;;;;;;;24.50;14.23;;;1.40;99.90;;;;;;4953303;29;20192;-59
2023/01/30 01:27:47;;;;;;;25.80;13.60;;;1.40;99.90;;;;;;4935932;28;20036;-59
2023/01/30 01:30:13;;;;;;;24.05;14.80;;;1.80;99.90;;;;;;4934052;29;20031;-56
2023/01/30 01:32:39;;;;;;;32.42;15.60;;;1.40;99.90;;;;;;4933774;29;20530;-57
2023/01/30 01:35:05;;;;;;;26.17;14.55;;;1.90;99.90;;;;;;4934884;29;20043;-57
2023/01/30 01:37:31;;;;;;;31.02;15.57;;;1.30;99.90;;;;;;4937502;29;20135;-59
2023/01/30 01:42:41;;;;;;;23.42;15.27;;;1.30;99.90;;;;;;4942961;29;20113;-58
2023/01/30 01:45:10;;;;;;;27.20;15.43;;;1.30;99.90;;;;;;4943272;29;20032;-59
2023/01/30 01:47:39;;;;;;;29.58;15.82;;;1.30;99.90;;;;;;4940007;29;20028;-59
2023/01/30 01:50:09;;;;;;;30.65;15.93;;;1.30;99.90;;;;;;4933557;29;20040;-60
2023/01/30 01:52:34;;;;;;;37.28;15.65;;;1.30;99.90;;;;;;4940604;29;20027;-61
2023/01/30 01:55:04;;;;;;;30.50;16.23;;;1.40;99.90;;;;;;4952751;29;20027;-61
2023/01/30 01:57:45;;;;;;;30.92;15.70;;;1.40;99.90;;;;;;4944164;29;20459;-59
2023/01/30 02:00:14;;;;;;;30.30;16.90;;;1.40;99.90;;;;;;4952206;29;20509;-57
2023/01/30 02:02:55;;;;;;;31.52;16.70;;;1.40;99.90;;;;;;4946757;29;20024;-60
2023/01/30 02:05:21;;;;;;;38.58;15.07;;;1.40;99.90;;;;;;4933556;29;20503;-60
2023/01/30 02:08:07;;;;;;;24.92;15.02;;;1.40;99.90;;;;;;4934847;29;20035;-62
2023/01/30 02:10:47;;;;;;;31.20;14.98;;;1.40;99.90;;;;;;4933483;29;20040;-61
2023/01/30 02:13:13;;;;;;;33.35;16.92;;;2.10;99.90;;;;;;4951064;29;20047;-62
2023/01/30 02:15:39;;;;;;;29.55;15.32;;;1.40;99.90;;;;;;4950991;28;20031;-62
2023/01/30 02:18:05;;;;;;;31.70;15.93;;;1.40;99.90;;;;;;4949844;28;20031;-59
2023/01/30 02:20:49;;;;;;;36.92;17.40;;;1.40;99.90;;;;;;4942149;29;20515;-59
2023/01/30 02:23:37;;;;;;;32.50;16.55;;;1.40;99.90;;;;;;4975803;23;20047;-64
2023/01/30 02:26:41;;;;;;;36.30;17.30;;;1.40;99.90;;;;;;4941302;28;20056;-63
2023/01/30 02:29:28;;;;;;;38.63;17.05;;;1.30;99.90;;;;;;4962909;28;20030;-64
2023/01/30 02:32:20;;;;;;;38.38;17.38;;;1.30;99.90;;;;;;4956519;29;20032;-64
2023/01/30 02:35:31;;;;;;;40.58;17.52;;;1.30;99.90;;;;;;4941550;29;20028;-64
2023/01/30 02:38:20;;;;;;;42.63;19.45;;;1.40;99.90;;;;;;4917700;29;20071;-64
2023/01/30 02:40:54;;;;;;;35.83;16.35;;;1.40;99.90;;;;;;4941483;29;20031;-64
2023/01/30 02:43:39;;;;;;;30.15;16.27;;;1.40;99.90;;;;;;4941382;29;20030;-63
2023/01/30 02:46:14;;;;;;;43.58;18.25;;;1.40;99.90;;;;;;4940781;29;20024;-64
2023/01/30 02:48:42;;;;;;;;;;;1.50;99.90;;;;;;4942289;29;20043;-63
2023/01/30 02:51:21;;;;;;;40.72;19.67;;;1.40;99.90;;;;;;4942402;29;19950;-63
2023/01/30 02:53:49;;;;;;;35.92;16.40;;;1.40;99.90;;;;;;4942003;29;20039;-64
2023/01/30 02:56:14;;;;;;;37.70;18.15;;;1.30;99.90;;;;;;4942572;29;20030;-63
2023/01/30 02:58:47;;;;;;;45.00;19.23;;;1.20;99.90;;;;;;4942592;29;20027;-64
2023/01/30 03:01:31;;;;;;;42.15;20.60;;;1.20;99.90;;;;;;4943389;29;20166;-62
2023/01/30 03:04:17;;;;;;;44.08;20.50;;;1.20;99.90;;;;;;4943001;29;20038;-63
2023/01/30 03:06:55;;;;;;;44.28;19.20;;;1.30;99.90;;;;;;4942749;29;20028;-62
2023/01/30 03:09:28;;;;;;;54.10;22.88;;;1.20;99.90;;;;;;4924483;29;20063;-64
2023/01/30 03:12:15;;;;;;;50.40;20.27;;;1.20;99.90;;;;;;4930678;29;20043;-64
2023/01/30 03:15:04;;;;;;;48.97;21.60;;;1.20;99.90;;;;;;4944672;29;20023;-63
2023/01/30 03:17:31;;;;;;;54.53;22.58;;;1.30;99.90;;;;;;4943568;29;20051;-61
2023/01/30 03:19:57;;;;;;;50.75;21.80;;;1.30;99.90;;;;;;4941114;29;20032;-64
2023/01/30 03:22:23;;;;;;;46.72;21.23;;;2.00;99.90;;;;;;4942177;29;20086;-62
2023/01/30 03:24:52;;;;;;;44.33;21.10;;;1.30;99.90;;;;;;4942854;29;20024;-62
2023/01/30 03:27:19;;;;;;;48.85;20.92;;;1.70;99.90;;;;;;4942274;29;20043;-64
2023/01/30 03:29:44;;;;;;;35.83;18.10;;;1.40;99.90;;;;;;4943271;29;20103;-63
2023/01/30 03:32:10;;;;;;;48.05;20.67;;;1.40;99.90;;;;;;4946573;29;20038;-64
2023/01/30 03:34:35;;;;;;;39.05;20.00;;;1.40;99.90;;;;;;4947064;29;20384;-63
2023/01/30 03:37:02;;;;;;;41.25;19.48;;;1.40;99.90;;;;;;4945744;29;20054;-63
2023/01/30 03:39:28;;;;;;;43.05;19.27;;;1.50;99.90;;;;;;4943052;29;20035;-63
2023/01/30 03:41:53;;;;;;;43.50;19.55;;;1.40;99.90;;;;;;4945533;29;20500;-63
2023/01/30 03:44:19;;;;;;;40.72;20.05;;;1.50;99.90;;;;;;4946444;29;20055;-63
2023/01/30 03:46:45;;;;;;;38.03;18.38;;;1.50;99.90;;;;;;4946737;29;20294;-62
2023/01/30 03:49:11;;;;;;;40.80;20.55;;;1.60;99.90;;;;;;4954650;29;20091;-62
2023/01/30 03:51:37;;;;;;;43.78;20.25;;;1.60;99.90;;;;;;4947993;29;20075;-58
2023/01/30 03:54:03;;;;;;;44.15;19.05;;;1.50;99.90;;;;;;4942903;29;20349;-62
2023/01/30 03:56:29;;;;;;;40.50;19.88;;;1.50;99.90;;;;;;4944681;29;20036;-62
2023/01/30 03:58:55;;;;;;;45.38;20.25;;;1.50;99.90;;;;;;4941680;29;20036;-63
2023/01/30 04:01:21;;;;;;;39.33;18.90;;;1.50;99.90;;;;;;4942276;29;20062;-64
2023/01/30 04:03:47;;;;;;;43.55;19.67;;;1.50;99.90;;;;;;4941424;29;20062;-63
2023/01/30 04:06:12;;;;;;;43.10;19.75;;;1.60;99.90;;;;;;4941291;29;20064;-62
2023/01/30 04:08:38;;;;;;;38.38;19.00;;;1.60;99.90;;;;;;4942271;29;20576;-63
2023/01/30 04:11:04;;;;;;;43.38;18.42;;;1.50;99.90;;;;;;4942093;29;20134;-63
2023/01/30 04:13:29;;;;;;;46.58;21.88;;;1.60;99.90;;;;;;4943139;29;20032;-64
2023/01/30 04:16:20;;;;;;;42.72;20.48;;;1.60;99.90;;;;;;4942365;29;20058;-60
2023/01/30 04:18:46;;;;;;;40.78;20.08;;;1.60;99.90;;;;;;4942498;29;20114;-65
2023/01/30 04:21:13;;;;;;;37.53;18.63;;;1.40;99.90;;;;;;4942251;29;20058;-64
2023/01/30 04:23:39;;;;;;;38.50;18.30;;;1.60;99.90;;;;;;4941838;29;20039;-63
2023/01/30 04:26:05;;;;;;;38.50;17.92;;;1.70;99.90;;;;;;4940346;29;20032;-63
2023/01/30 04:28:31;;;;;;;37.33;16.52;;;1.70;99.90;;;;;;4941113;29;20039;-63
2023/01/30 04:30:57;;;;;;;37.95;17.70;;;1.80;99.90;;;;;;4941423;29;20032;-63
2023/01/30 04:33:23;;;;;;;39.63;18.15;;;1.80;99.90;;;;;;4941068;29;20506;-63
2023/01/30 04:35:57;;;;;;;36.83;19.05;;;1.90;99.90;;;;;;4941242;29;20039;-63
2023/01/30 04:38:23;;;;;;;;;;;1.90;99.90;;;;;;4941169;29;20466;-64
2023/01/30 04:40:50;;;;;;;39.80;17.83;;;1.90;99.90;;;;;;4940988;29;19981;-62
2023/01/30 04:43:16;;;;;;;32.35;17.65;;;0.50;99.90;;;;;;4941406;29;20400;-64
2023/01/30 04:45:46;;;;;;;38.08;17.23;;;2.00;99.90;;;;;;4940067;29;20531;-63
2023/01/30 04:48:12;;;;;;;32.47;15.52;;;3.30;99.90;;;;;;4941017;29;20495;-62
2023/01/30 04:50:43;;;;;;;33.75;17.38;;;2.10;99.90;;;;;;4939990;29;20042;-62
2023/01/30 04:53:09;;;;;;;36.65;18.63;;;2.10;99.90;;;;;;4940015;29;20534;-62
2023/01/30 04:55:36;;;;;;;38.10;18.27;;;2.10;99.90;;;;;;4940692;29;20500;-62
2023/01/30 04:58:01;;;;;;;45.40;18.55;;;2.20;99.90;;;;;;4940772;29;20024;-64
2023/01/30 05:00:27;;;;;;;32.58;16.67;;;2.20;99.90;;;;;;4941516;29;20028;-61
2023/01/30 05:02:54;;;;;;;37.72;18.08;;;2.20;99.90;;;;;;4941429;29;20094;-64
2023/01/30 05:05:21;;;;;;;54.28;19.48;;;2.20;99.90;;;;;;4931749;29;20454;-64
2023/01/30 05:07:47;;;;;;;35.05;17.13;;;2.20;99.90;;;;;;4937593;29;20552;-59
2023/01/30 05:10:13;;;;;;;37.35;18.17;;;2.20;99.90;;;;;;4938962;29;20035;-64
2023/01/30 05:12:38;;;;;;;46.92;19.08;;;2.70;99.90;;;;;;4938943;29;20075;-64
2023/01/30 05:15:05;;;;;;;39.28;18.60;;;2.90;99.90;;;;;;4938949;29;20529;-63
2023/01/30 05:17:31;;;;;;;35.05;18.42;;;2.10;99.90;;;;;;4937197;29;20590;-65
2023/01/30 05:19:57;;;;;;;45.45;20.52;;;2.10;99.90;;;;;;4937427;29;20035;-60
2023/01/30 05:22:23;;;;;;;47.33;21.02;;;2.00;99.90;;;;;;4938497;29;20545;-62
2023/01/30 05:24:48;;;;;;;45.22;20.83;;;2.00;99.90;;;;;;4936985;29;20043;-66
2023/01/30 05:27:14;;;;;;;48.40;21.35;;;2.70;99.90;;;;;;4937427;29;20035;-62
2023/01/30 05:29:40;;;;;;;44.65;19.55;;;2.20;99.90;;;;;;4937656;29;20035;-66
2023/01/30 05:32:06;;;;;;;40.58;20.05;;;2.20;99.90;;;;;;4935045;29;20486;-64
2023/01/30 05:34:32;;;;;;;57.35;22.30;;;1.90;99.90;;;;;;4936698;29;20110;-65
2023/01/30 05:36:57;;;;;;;48.05;20.35;;;1.90;99.90;;;;;;4935352;29;20256;-63
2023/01/30 05:39:23;;;;;;;45.60;21.05;;;1.80;99.90;;;;;;4937853;29;20047;-62
2023/01/30 05:41:48;;;;;;;51.25;21.27;;;1.80;99.90;;;;;;4937210;29;20028;-65
2023/01/30 05:44:14;;;;;;;52.15;22.25;;;1.80;99.90;;;;;;4935794;29;20116;-65
2023/01/30 05:46:40;;;;;;;45.53;20.48;;;1.80;99.90;;;;;;4934499;29;20031;-67
2023/01/30 05:49:06;;;;;;;55.03;20.58;;;1.80;99.90;;;;;;4934299;29;20083;-64
2023/01/30 05:51:32;;;;;;;54.53;21.60;;;1.90;99.90;;;;;;4934347;29;20095;-62
2023/01/30 05:53:58;;;;;;;38.40;17.48;;;1.80;99.90;;;;;;4935478;29;20039;-65
2023/01/30 05:56:24;;;;;;;51.67;19.85;;;1.90;99.90;;;;;;4933803;29;20028;-65
2023/01/30 05:58:54;;;;;;;54.33;22.23;;;1.80;99.90;;;;;;4934105;29;20464;-60
2023/01/30 06:01:21;;;;;;;55.58;21.48;;;2.10;99.90;;;;;;4933843;29;20030;-64
2023/01/30 06:03:47;;;;;;;48.13;21.13;;;1.90;99.90;;;;;;4936926;29;20039;-64
2023/01/30 06:06:14;;;;;;;49.13;21.23;;;1.90;99.90;;;;;;4940045;29;20078;-59
2023/01/30 06:08:39;;;;;;;44.20;19.60;;;1.90;99.90;;;;;;4939533;29;20027;-66
2023/01/30 06:11:09;;;;;;;49.13;20.17;;;1.90;99.90;;;;;;4940537;29;20051;-63
2023/01/30 06:13:35;;;;;;;55.28;20.58;;;2.00;99.90;;;;;;4937431;29;20035;-61
2023/01/30 06:16:01;;;;;;;54.22;21.75;;;2.90;99.90;;;;;;4934238;29;20036;-63
2023/01/30 06:18:27;;;;;;;55.45;23.15;;;2.00;99.90;;;;;;4941269;29;20532;-64
2023/01/30 06:20:54;;;;;;;46.10;20.85;;;2.10;99.90;;;;;;4939666;29;20031;-61
2023/01/30 06:23:20;;;;;;;50.47;21.70;;;2.10;99.90;;;;;;4940863;29;20035;-65
2023/01/30 06:25:47;;;;;;;50.55;20.33;;;2.10;99.90;;;;;;4939522;29;20032;-66
2023/01/30 06:28:15;;;;;;;55.40;20.85;;;2.10;99.90;;;;;;4950755;29;20213;-65
2023/01/30 06:30:41;;;;;;;44.85;18.60;;;2.10;99.90;;;;;;4940409;29;20841;-65
2023/01/30 06:33:07;;;;;;;52.22;20.95;;;2.50;99.90;;;;;;4941598;29;20040;-66
2023/01/30 06:35:33;;;;;;;48.58;19.80;;;2.20;99.90;;;;;;4938650;29;20510;-65
2023/01/30 06:37:58;;;;;;;59.70;21.83;;;2.20;99.90;;;;;;4938813;29;20027;-64
2023/01/30 06:40:24;;;;;;;47.45;19.33;;;3.10;99.90;;;;;;4938435;29;20062;-62
2023/01/30 06:42:50;;;;;;;46.97;20.08;;;2.30;99.90;;;;;;4939420;29;20027;-66
2023/01/30 06:45:17;;;;;;;34.25;17.52;;;2.30;99.90;;;;;;4936720;29;20178;-65
2023/01/30 06:47:51;;;;;;;43.50;18.17;;;2.30;99.90;;;;;;4937944;29;20031;-59
2023/01/30 06:50:18;;;;;;;34.05;15.95;;;2.40;99.90;;;;;;4938754;29;20059;-60
2023/01/30 06:52:45;;;;;;;45.35;19.65;;;2.50;99.90;;;;;;4928336;29;20048;-65
2023/01/30 06:55:14;;;;;;;47.72;19.23;;;3.10;99.90;;;;;;4939630;29;20036;-63
2023/01/30 06:57:40;;;;;;;46.28;19.02;;;2.60;99.90;;;;;;4938805;29;20036;-63
2023/01/30 07:00:11;;;;;;;40.63;16.55;;;2.60;99.90;;;;;;4938991;29;20087;-63
2023/01/30 07:02:37;;;;;;;37.25;17.40;;;2.60;99.90;;;;;;4926543;29;20027;-63
2023/01/30 07:05:04;;;;;;;36.67;14.80;;;2.70;99.90;;;;;;4938293;29;20027;-61
2023/01/30 07:07:30;;;;;;;36.78;15.98;;;2.70;99.90;;;;;;4936925;29;20035;-66
2023/01/30 07:09:57;;;;;;;36.90;16.52;;;2.70;99.90;;;;;;4935222;29;20395;-64
2023/01/30 07:12:23;;;;;;;30.33;15.48;;;2.80;99.90;;;;;;4938118;29;20035;-62
2023/01/30 07:14:50;;;;;;;32.20;15.73;;;2.80;99.90;;;;;;4934620;29;20558;-62
2023/01/30 07:17:16;;;;;;;30.95;15.50;;;2.90;99.90;;;;;;4934328;29;20063;-65
2023/01/30 07:19:42;;;;;;;35.35;15.27;;;2.90;99.90;;;;;;4935343;29;20149;-65
2023/01/30 07:22:08;;;;;;;52.38;17.52;;;3.20;99.90;;;;;;4934280;29;20055;-60
2023/01/30 07:24:34;;;;;;;24.50;14.48;;;3.10;99.90;;;;;;4935746;29;20095;-63
2023/01/30 07:26:59;;;;;;;33.72;14.10;;;3.00;99.90;;;;;;4937544;29;20663;-65
2023/01/30 07:29:25;;;;;;;31.08;15.25;;;3.10;99.90;;;;;;4936141;29;20031;-61
2023/01/30 07:31:51;;;;;;;21.88;12.88;;;3.10;99.90;;;;;;4932441;29;20095;-61
2023/01/30 07:34:16;;;;;;;19.63;12.13;;;3.20;99.90;;;;;;4932872;29;20388;-65
2023/01/30 07:36:42;;;;;;;29.23;12.45;;;3.20;99.90;;;;;;4932884;29;20039;-61
2023/01/30 07:39:08;;;;;;;24.80;13.63;;;3.20;99.90;;;;;;4933161;29;20047;-64
2023/01/30 07:41:34;;;;;;;27.25;13.00;;;3.30;99.90;;;;;;4932693;29;20120;-62
2023/01/30 07:44:01;;;;;;;15.13;9.40;;;3.50;99.90;;;;;;4930959;29;20024;-63
2023/01/30 07:46:33;;;;;;;22.23;10.43;;;3.50;99.90;;;;;;4932892;29;20198;-63
2023/01/30 07:49:00;;;;;;;17.65;11.25;;;3.90;99.90;;;;;;4933100;29;20038;-60
2023/01/30 07:51:25;;;;;;;20.10;8.60;;;3.60;99.90;;;;;;4935496;29;20035;-60
2023/01/30 07:53:51;;;;;;;16.85;10.05;;;3.60;99.90;;;;;;4935213;29;20382;-65
2023/01/30 07:56:18;;;;;;;15.15;9.55;;;3.60;99.90;;;;;;4942341;29;20035;-64
2023/01/30 07:58:44;;;;;;;20.17;9.05;;;4.10;99.90;;;;;;4939330;29;20082;-61
2023/01/30 08:01:10;;;;;;;12.07;9.45;;;5.50;99.90;;;;;;4941275;28;20565;-62
2023/01/30 08:03:36;;;;;;;19.33;8.52;;;3.60;99.90;;;;;;4935003;29;20031;-65
2023/01/30 08:06:02;;;;;;;13.18;9.73;;;3.70;99.90;;;;;;4938187;29;20085;-64
2023/01/30 08:08:28;;;;;;;15.80;9.45;;;3.70;99.90;;;;;;4936270;29;20047;-63
2023/01/30 08:10:53;;;;;;;9.65;6.78;;;3.80;99.90;;;;;;4935884;29;20032;-63
2023/01/30 08:13:19;;;;;;;12.13;8.32;;;3.80;99.90;;;;;;4935952;29;20035;-62
2023/01/30 08:15:44;;;;;;;11.05;8.10;;;3.90;99.90;;;;;;4935366;29;20078;-65
2023/01/30 08:18:10;;;;;;;8.25;7.00;;;3.90;99.90;;;;;;4938571;29;20118;-60
2023/01/30 08:20:36;;;;;;;10.07;8.23;;;3.90;99.90;;;;;;4934583;29;20020;-64
2023/01/30 08:23:02;;;;;;;14.98;8.55;;;5.40;99.90;;;;;;4956745;23;20066;-60
2023/01/30 08:25:28;;;;;;;8.35;6.80;;;3.90;99.90;;;;;;4970617;28;20054;-62
2023/01/30 08:27:54;;;;;;;10.95;8.57;;;3.90;99.90;;;;;;4967499;28;20030;-62
2023/01/30 08:30:21;;;;;;;9.27;7.28;;;3.90;99.90;;;;;;4969444;28;20090;-61
2023/01/30 08:32:47;;;;;;;9.18;7.30;;;3.90;99.90;;;;;;4971401;28;20031;-65
2023/01/30 08:35:13;;;;;;;11.10;7.25;;;3.90;99.90;;;;;;4945013;28;20047;-61
2023/01/30 08:37:40;;;;;;;7.90;6.78;;;4.00;99.90;;;;;;4949891;28;20114;-60
2023/01/30 08:40:07;;;;;;;12.63;7.32;;;4.00;99.90;;;;;;4953357;28;20043;-61
2023/01/30 08:42:33;;;;;;;19.40;6.85;;;4.00;99.90;;;;;;4960920;28;20140;-61
2023/01/30 08:44:59;;;;;;;9.75;7.13;;;4.00;99.90;;;;;;4950159;28;20491;-59
2023/01/30 08:47:25;;;;;;;8.55;5.50;;;4.00;99.90;;;;;;4962313;28;20465;-60
2023/01/30 08:49:51;;;;;;;8.98;5.60;;;4.10;99.90;;;;;;4955263;28;20055;-59
2023/01/30 08:52:17;;;;;;;7.65;5.63;;;4.00;99.90;;;;;;4949236;28;20027;-60
2023/01/30 08:54:43;;;;;;;11.65;5.20;;;4.10;99.90;;;;;;4949816;28;20019;-60
2023/01/30 08:57:09;;;;;;;11.30;4.82;;;4.10;99.90;;;;;;4947717;28;20047;-57
2023/01/30 08:59:34;;;;;;;7.80;4.35;;;4.20;99.90;;;;;;4954221;28;20078;-59
2023/01/30 09:02:00;;;;;;;8.15;3.88;;;4.20;99.90;;;;;;4964209;28;20516;-58
2023/01/30 09:04:28;;;;;;;8.82;4.70;;;4.20;99.90;;;;;;4952599;28;20486;-59
2023/01/30 09:06:54;;;;;;;11.73;4.25;;;4.30;99.90;;;;;;4956623;28;20038;-63
2023/01/30 09:09:20;;;;;;;5.63;3.92;;;4.40;99.90;;;;;;4951584;28;20031;-59
2023/01/30 09:11:49;;;;;;;5.90;4.10;;;4.50;99.90;;;;;;4948219;28;20169;-60
2023/01/30 09:14:18;;;;;;;9.80;3.22;;;4.50;99.90;;;;;;4965789;28;20026;-65
2023/01/30 09:16:54;;;;;;;10.18;3.95;;;4.40;99.90;;;;;;4955949;28;20264;-62
2023/01/30 09:19:24;;;;;;;2.88;2.40;;;4.40;99.90;;;;;;4950507;28;20331;-63
2023/01/30 09:21:50;;;;;;;4.35;3.50;;;4.40;99.90;;;;;;4954344;28;20020;-61
2023/01/30 09:24:16;;;;;;;4.85;2.72;;;4.40;99.90;;;;;;4969230;28;20499;-59
2023/01/30 09:26:43;;;;;;;8.50;2.60;;;4.50;99.90;;;;;;4956704;28;20027;-63
2023/01/30 09:29:12;;;;;;;5.20;2.17;;;4.60;99.90;;;;;;4956303;28;20102;-61
2023/01/30 09:31:38;;;;;;;7.82;2.83;;;4.60;99.90;;;;;;4945827;28;20027;-61
2023/01/30 09:34:05;;;;;;;5.78;2.83;;;4.60;99.90;;;;;;4951579;28;20525;-63
2023/01/30 09:36:30;;;;;;;5.10;2.92;;;4.60;99.90;;;;;;4947235;28;20023;-62
2023/01/30 09:38:56;;;;;;;5.07;2.20;;;4.60;99.90;;;;;;4966222;28;20089;-61
2023/01/30 09:42:08;;;;;;;6.97;3.10;;;4.60;99.90;;;;;;4962069;28;20429;-63
2023/01/30 09:44:42;;;;;;;10.27;2.25;;;4.70;99.90;;;;;;4951125;28;20716;-60
2023/01/30 09:47:34;;;;;;;7.45;1.75;;;4.70;99.90;;;;;;4947380;28;20541;-61
2023/01/30 09:50:25;;;;;;;8.35;2.28;;;4.80;99.90;;;;;;4965894;28;20023;-60
2023/01/30 09:52:55;;;;;;;6.30;2.38;;;4.90;99.90;;;;;;4950565;28;20467;-61
2023/01/30 09:55:29;;;;;;;6.32;2.78;;;4.90;99.90;;;;;;4949803;28;20121;-60
2023/01/30 09:57:58;;;;;;;5.03;1.90;;;5.00;99.90;;;;;;4960923;28;20454;-57
2023/01/30 10:00:36;;;;;;;9.75;2.35;;;5.10;99.90;;;;;;4953997;28;20446;-60
2023/01/30 10:03:28;;;;;;;3.00;1.58;;;5.10;99.90;;;;;;4952122;28;20031;-59
2023/01/30 10:06:03;;;;;;;7.60;1.55;;;5.10;99.90;;;;;;4956785;28;20024;-59
2023/01/30 10:08:32;;;;;;;13.27;1.45;;;5.10;99.90;;;;;;4948178;28;20384;-59
2023/01/30 10:11:01;;;;;;;9.93;1.30;;;5.00;99.90;;;;;;4959149;28;20041;-60
2023/01/30 10:13:36;;;;;;;11.05;1.52;;;5.10;99.90;;;;;;4959201;28;20038;-60
2023/01/30 10:16:44;;;;;;;5.07;1.23;;;5.20;99.90;;;;;;4965139;28;20046;-62
2023/01/30 10:19:27;;;;;;;4.35;2.33;;;5.20;99.90;;;;;;4908171;29;20540;-58
2023/01/30 10:22:24;;;;;;;13.20;1.60;;;5.30;99.90;;;;;;4915222;29;20032;-62
2023/01/30 10:25:04;;;;;;;18.85;1.67;;;5.30;99.90;;;;;;4909470;29;20211;-63
2023/01/30 10:27:32;;;;;;;21.98;1.75;;;5.40;99.90;;;;;;4905354;29;20312;-61
2023/01/30 10:30:01;;;;;;;18.92;1.27;;;5.40;99.90;;;;;;4905792;29;20090;-62
2023/01/30 10:33:06;;;;;;;11.93;2.15;;;5.40;99.90;;;;;;4905985;29;20163;-61
2023/01/30 10:35:37;;;;;;;11.25;1.30;;;5.50;99.90;;;;;;4905120;29;20453;-61
2023/01/30 10:38:05;;;;;;;22.83;2.15;;;5.70;99.90;;;;;;4906852;29;20132;-58
2023/01/30 10:40:33;;;;;;;17.92;1.75;;;5.70;99.90;;;;;;4912133;29;20065;-60
2023/01/30 10:43:24;;;;;;;19.63;2.38;;;5.70;99.90;;;;;;4912651;29;20447;-59
2023/01/30 10:45:56;;;;;;;18.77;2.25;;;5.70;99.90;;;;;;4912709;29;20040;-65
2023/01/30 10:48:39;;;;;;;15.27;1.77;;;5.60;99.90;;;;;;4905684;29;20044;-60
2023/01/30 10:51:21;;;;;;;15.73;1.60;;;5.60;99.90;;;;;;4909826;29;20130;-60
2023/01/30 10:53:53;;;;;;;16.77;1.67;;;5.60;99.90;;;;;;4909413;29;20068;-62
2023/01/30 10:56:32;;;;;;;20.73;1.70;;;5.60;99.90;;;;;;4943824;28;20822;-60
2023/01/30 10:59:21;;;;;;;19.50;3.08;;;5.50;99.90;;;;;;4958283;28;20034;-64
2023/01/30 11:01:57;;;;;;;15.85;1.17;;;5.60;99.90;;;;;;4952015;28;20031;-63
2023/01/30 11:04:31;;;;;;;22.92;2.70;;;5.50;99.90;;;;;;4951952;28;20066;-64
2023/01/30 11:06:58;;;;;;;19.52;1.77;;;5.60;99.90;;;;;;4943839;28;20059;-57
2023/01/30 11:09:39;;;;;;;20.02;2.17;;;5.50;99.90;;;;;;4946101;28;20102;-62
2023/01/30 11:12:05;;;;;;;17.67;1.50;;;5.50;99.90;;;;;;4950318;28;20019;-62
2023/01/30 11:14:51;;;;;;;12.32;1.65;;;5.50;99.90;;;;;;4952724;28;20022;-56
2023/01/30 11:17:20;;;;;;;16.58;1.85;;;5.50;99.90;;;;;;4957470;28;20118;-62
2023/01/30 11:20:00;;;;;;;14.98;1.60;;;5.50;99.90;;;;;;4970146;28;20034;-63
2023/01/30 11:22:27;;;;;;;20.90;2.25;;;5.50;99.90;;;;;;4938654;28;20035;-61
2023/01/30 11:25:01;;;;;;;10.52;1.67;;;5.80;99.90;;;;;;4941559;28;20027;-59
2023/01/30 11:27:32;;;;;;;27.17;1.92;;;5.80;99.90;;;;;;4952630;28;20034;-59
2023/01/30 11:30:17;;;;;;;14.85;1.67;;;5.80;99.90;;;;;;4967454;28;20043;-64
2023/01/30 11:32:45;;;;;;;34.70;3.63;;;5.90;99.90;;;;;;4972872;28;20346;-62
2023/01/30 11:35:14;;;;;;;11.77;1.30;;;5.80;99.90;;;;;;4970230;28;20026;-63
2023/01/30 11:37:42;;;;;;;20.33;3.55;;;5.80;99.90;;;;;;4950093;28;20019;-62
2023/01/30 11:40:17;;;;;;;21.60;1.90;;;6.00;99.90;;;;;;4948359;28;20142;-64
2023/01/30 11:42:48;;;;;;;15.88;2.33;;;6.10;99.90;;;;;;4947163;28;20451;-64
2023/01/30 11:45:16;;;;;;;28.45;3.08;;;6.20;99.90;;;;;;4959267;28;20537;-65
2023/01/30 11:47:51;;;;;;;18.45;1.50;;;6.00;99.90;;;;;;4948155;28;20063;-62
2023/01/30 11:50:18;;;;;;;15.25;1.80;;;5.90;99.90;;;;;;4936522;28;20031;-61
2023/01/30 11:52:45;;;;;;;15.35;1.90;;;7.60;99.90;;;;;;4944470;28;20098;-62
2023/01/30 11:55:15;;;;;;;18.90;2.40;;;5.80;99.90;;;;;;4951147;28;20034;-61
2023/01/30 11:57:46;;;;;;;18.27;3.38;;;5.80;99.90;;;;;;4958745;28;20406;-62
2023/01/30 12:00:45;;;;;;;11.88;1.77;;;5.80;99.90;;;;;;4943417;28;20035;-62
2023/01/30 12:03:15;;;;;;;25.65;2.63;;;5.80;99.90;;;;;;4950685;28;20045;-64
2023/01/30 12:05:44;;;;;;;19.45;2.30;;;5.80;99.90;;;;;;4954570;28;20018;-63
2023/01/30 12:08:22;;;;;;;19.40;2.28;;;5.70;99.90;;;;;;4951148;28;20504;-60
2023/01/30 12:10:53;;;;;;;21.85;1.40;;;5.60;99.90;;;;;;4954372;28;20036;-60
2023/01/30 12:13:40;;;;;;;18.23;1.65;;;5.40;99.90;;;;;;4955308;28;20039;-61
2023/01/30 12:16:45;;;;;;;22.05;1.63;;;4.50;99.90;;;;;;4944203;28;20123;-60
2023/01/30 12:19:34;;;;;;;11.20;1.40;;;3.90;99.90;;;;;;4947206;28;20039;-59
2023/01/30 12:22:25;;;;;;;15.32;1.60;;;3.80;99.90;;;;;;4946711;28;20055;-63
2023/01/30 12:24:59;;;;;;;18.13;1.55;;;4.10;99.90;;;;;;4947766;28;20040;-63
2023/01/30 12:27:47;;;;;;;13.00;1.73;;;4.50;99.90;;;;;;4950959;28;20031;-64
2023/01/30 12:30:21;;;;;;;21.80;2.08;;;4.80;99.90;;;;;;4950094;28;20456;-64
2023/01/30 12:32:47;;;;;;;21.98;2.22;;;5.20;99.90;;;;;;4956774;28;20039;-62
2023/01/30 12:35:16;;;;;;;22.35;2.65;;;5.30;99.90;;;;;;4959173;28;20408;-64
2023/01/30 12:38:02;;;;;;;18.52;2.70;;;5.40;99.90;;;;;;4961561;28;20030;-62
2023/01/30 12:40:27;;;;;;;24.10;2.47;;;5.40;99.90;;;;;;4943038;28;20026;-64
2023/01/30 12:43:05;;;;;;;16.00;1.80;;;5.50;99.90;;;;;;4953085;28;20042;-61
2023/01/30 12:46:11;;;;;;;25.80;2.25;;;5.40;99.90;;;;;;4955043;28;20509;-60
2023/01/30 12:48:52;;;;;;;18.20;1.58;;;5.50;99.90;;;;;;4948920;28;20042;-60
2023/01/30 12:51:39;;;;;;;17.80;1.80;;;5.50;99.90;;;;;;4955069;28;20034;-60
2023/01/30 12:54:51;;;;;;;25.73;2.10;;;5.50;99.90;;;;;;4955503;28;20027;-64
2023/01/30 12:57:43;;;;;;;16.40;2.03;;;5.60;99.90;;;;;;4919198;28;20062;-61
2023/01/30 13:00:15;;;;;;;25.17;2.70;;;5.60;99.90;;;;;;4942580;28;20138;-60
2023/01/30 13:02:58;;;;;;;22.63;4.20;;;5.70;99.90;;;;;;4938398;28;20028;-63
2023/01/30 13:05:52;;;;;;;15.80;1.40;;;5.80;99.90;;;;;;4935260;28;20314;-61
2023/01/30 13:08:39;;;;;;;21.35;1.95;;;5.80;99.90;;;;;;4947349;28;20460;-65
2023/01/30 13:11:39;;;;;;;21.20;1.98;;;5.80;99.90;;;;;;4952106;28;20382;-62